Bookmark and Share
Track history (hours):
 

St Solene

Last reported at 2014-Apr-16 16:06 UTC. Time now 2014-Apr-17 15:32 UTC.
Position N 42°35' E 006°21'.

Length 104 m; draft 6.8 m.

Type: Tanker. MMSI: 226302000.

NotesDate/timePositionNaut miles runAvg speedWind from/ knotsBaromVisibWave heightAir tempDewpointWater temp
2014-Apr-16 16:06N 42°35' E 006°21'5 9.8
2014-Apr-16 15:34N 42°38' E 006°15'1010.0
2014-Apr-16 14:34N 42°42' E 006°03'1010.0
2014-Apr-16 13:33N 42°47' E 005°51'8 8.1
2014-Apr-16 12:34N 42°51' E 005°41'8 7.9
2014-Apr-16 11:34N 42°55' E 005°32'9 9.2
2014-Apr-16 10:33N 42°59' E 005°21'171121.7
2014-Apr-16 09:09N 43°06' E 001°27'156256.7
2014-Apr-16 08:32N 43°12' E 005°01'1111.0
2014-Apr-16 07:34N 43°23' E 004°57'4 3.8
2014-Apr-16 06:33N 43°26' E 004°54'0 0.0
2014-Apr-16 05:28N 43°26' E 004°54'0 0.0
2014-Apr-16 04:31N 43°26' E 004°54'0 0.0
2014-Apr-16 03:31N 43°26' E 004°54'0 0.0
2014-Apr-16 02:31N 43°26' E 004°54'0 0.0
2014-Apr-16 01:28N 43°26' E 004°54'0 0.0
2014-Apr-16 00:31N 43°26' E 004°54'0 0.0
2014-Apr-15 23:31N 43°26' E 004°54'0 0.0
2014-Apr-15 22:31N 43°26' E 004°54'0 0.0
2014-Apr-15 21:31N 43°26' E 004°54'0 0.0
2014-Apr-15 20:31N 43°26' E 004°54'0 0.0
2014-Apr-15 19:25N 43°26' E 004°54'0 0.0
2014-Apr-15 18:31N 43°26' E 004°54'0 0.0
2014-Apr-15 17:31N 43°26' E 004°54'0 0.0
2014-Apr-15 16:28N 43°26' E 004°54'0 0.0
2014-Apr-15 15:28N 43°26' E 004°54'0 0.0
2014-Apr-15 14:31N 43°26' E 004°54'0 0.0
2014-Apr-15 10:31N 43°26' E 004°54'0 0.0
2014-Apr-15 09:31N 43°26' E 004°54'0 0.0
2014-Apr-15 08:31N 43°26' E 004°54'0 0.0
2014-Apr-15 03:31N 43°26' E 004°54'0 0.0
2014-Apr-15 02:32N 43°26' E 004°54'0 0.0
2014-Apr-15 01:31N 43°26' E 004°54'0 0.0
2014-Apr-15 00:34N 43°26' E 004°54'0 0.0
2014-Apr-14 23:34N 43°26' E 004°54'1 1.3
2014-Apr-14 22:34N 43°24' E 004°53'5 4.7
2014-Apr-14 21:34N 43°24' E 004°60'0 0.0
2014-Apr-14 20:34N 43°24' E 004°60'0 0.0
2014-Apr-14 19:34N 43°24' E 004°60'0 0.0
2014-Apr-14 18:34N 43°24' E 004°60'0 0.0
2014-Apr-14 17:34N 43°24' E 004°60'0 0.0
2014-Apr-14 16:34N 43°24' E 004°60'0 0.0
2014-Apr-14 15:34N 43°24' E 004°60'0 0.0
2014-Apr-14 14:34N 43°24' E 004°60'0 0.0
2014-Apr-14 13:34N 43°24' E 004°60'0 0.0
2014-Apr-14 11:34N 43°24' E 004°60'0 0.0
2014-Apr-14 10:34N 43°24' E 004°60'0 0.0
2014-Apr-14 09:34N 43°24' E 004°60'0 0.0
2014-Apr-14 08:34N 43°24' E 004°60'0 0.0
2014-Apr-14 07:34N 43°24' E 004°60'0 0.0
2014-Apr-14 06:34N 43°24' E 004°60'0 0.0
2014-Apr-14 05:34N 43°24' E 004°60'8311.2
2014-Apr-13 22:10N 42°14' E 003°58'711.5
2014-Apr-13 21:33N 42°08' E 003°53'1110.9
2014-Apr-13 20:33N 42°00' E 003°43'2210.6
2014-Apr-13 18:26N 41°47' E 003°18'1011.2
2014-Apr-13 17:33N 41°42' E 003°07'1010.5
2014-Apr-13 16:33N 41°36' E 002°56'1111.1
2014-Apr-13 15:34N 41°29' E 002°44'1110.7
2014-Apr-13 14:33N 41°23' E 002°32'1110.9
2014-Apr-13 13:33N 41°17' E 002°20'9 8.0
2014-Apr-13 12:26N 41°20' E 002°09'6 1.1
2014-Apr-13 07:10N 41°17' E 002°15'811.7
2014-Apr-13 06:32N 41°19' E 002°25'4912.3
2014-Apr-13 02:33N 41°47' E 003°18'1212.2
2014-Apr-13 01:33N 41°55' E 003°31'1312.7
2014-Apr-13 00:33N 42°08' E 003°31'1212.4
2014-Apr-12 23:33N 42°20' E 003°31'2512.7
2014-Apr-12 21:33N 42°44' E 003°20'1312.8
2014-Apr-12 20:33N 42°56' E 003°14'9 9.3
2014-Apr-12 19:33N 43°01' E 003°04'0 0.0
2014-Apr-12 18:05N 43°01' E 003°04'0 0.0
2014-Apr-12 17:33N 43°01' E 003°04'0 0.0
2014-Apr-12 16:32N 43°01' E 003°04'0 0.0
2014-Apr-12 15:24N 43°01' E 003°04'0 0.0
2014-Apr-12 14:32N 43°01' E 003°04'0 0.0
2014-Apr-12 13:32N 43°01' E 003°04'0 0.0
2014-Apr-12 12:32N 43°01' E 003°04'0 0.0
2014-Apr-12 11:33N 43°01' E 003°04'0 0.0
2014-Apr-12 10:32N 43°01' E 003°04'0 0.0
2014-Apr-12 08:23N 43°01' E 003°04'0 0.0
2014-Apr-12 07:22N 43°01' E 003°04'0 0.0
2014-Apr-12 06:33N 43°01' E 003°04'6 2.0
2014-Apr-12 03:33N 42°59' E 003°11'19 9.3
2014-Apr-12 01:32N 43°01' E 003°37'9 9.1
2014-Apr-12 00:32N 43°03' E 003°49'28 9.3
2014-Apr-11 21:32N 43°08' E 004°27'9 9.4
2014-Apr-11 20:33N 43°09' E 004°39'9 8.9
2014-Apr-11 19:33N 43°11' E 004°51'8 7.5
2014-Apr-11 18:30N 43°15' E 004°60'910.0
2014-Apr-11 17:33N 43°24' E 004°54'1 1.3
2014-Apr-11 16:29N 43°25' E 004°53'0 0.0
2014-Apr-11 15:29N 43°25' E 004°53'0 0.0
2014-Apr-11 14:32N 43°25' E 004°53'0 0.0
2014-Apr-11 12:11N 43°25' E 004°53'0 0.0
2014-Apr-11 11:29N 43°25' E 004°53'0 0.0
2014-Apr-11 10:32N 43°25' E 004°53'0 0.0
2014-Apr-11 09:23N 43°25' E 004°53'0 0.0
2014-Apr-11 07:32N 43°25' E 004°53'0 0.0
2014-Apr-11 06:32N 43°25' E 004°53'0 0.0
2014-Apr-11 05:29N 43°25' E 004°53'0 0.0
2014-Apr-11 04:32N 43°25' E 004°53'0 0.0
2014-Apr-11 03:17N 43°25' E 004°53'0 0.0
2014-Apr-11 02:29N 43°25' E 004°53'0 0.0
2014-Apr-11 01:29N 43°25' E 004°53'0 0.0
2014-Apr-11 00:23N 43°25' E 004°53'0 0.0
2014-Apr-10 23:32N 43°25' E 004°53'0 0.1
2014-Apr-10 22:30N 43°25' E 004°53'1 1.4
2014-Apr-10 21:32N 43°25' E 004°55'0 0.0
2014-Apr-10 20:32N 43°25' E 004°55'0 0.0
2014-Apr-10 19:32N 43°25' E 004°55'0 0.0
2014-Apr-10 18:32N 43°25' E 004°55'0 0.0
2014-Apr-10 17:32N 43°25' E 004°55'0 0.0
2014-Apr-10 16:32N 43°25' E 004°55'0 0.0
2014-Apr-10 15:32N 43°25' E 004°55'0 0.0
2014-Apr-10 14:29N 43°25' E 004°55'0 0.0
2014-Apr-10 13:33N 43°25' E 004°55'0 0.0
2014-Apr-10 12:33N 43°25' E 004°55'0 0.0
2014-Apr-10 11:33N 43°25' E 004°55'0 0.0
2014-Apr-10 10:33N 43°25' E 004°55'0 0.0
2014-Apr-10 09:33N 43°25' E 004°55'0 0.1
2014-Apr-10 08:33N 43°25' E 004°55'0 0.1
2014-Apr-10 07:33N 43°25' E 004°55'0 0.0
2014-Apr-10 06:33N 43°25' E 004°55'0 0.0
2014-Apr-10 05:33N 43°25' E 004°55'0 0.0
2014-Apr-10 04:33N 43°25' E 004°55'0 0.0
2014-Apr-10 03:33N 43°25' E 004°55'0 0.0
2014-Apr-10 02:33N 43°25' E 004°55'0 0.0
2014-Apr-10 01:33N 43°25' E 004°55'0 0.0
2014-Apr-10 00:33N 43°25' E 004°55'0 0.0
2014-Apr-09 23:33N 43°25' E 004°55'0 0.0
2014-Apr-09 22:33N 43°25' E 004°55'0 0.0
2014-Apr-09 21:33N 43°25' E 004°55'0 0.0
2014-Apr-09 20:33N 43°25' E 004°55'0 0.0
2014-Apr-09 19:33N 43°25' E 004°55'0 0.0
2014-Apr-09 18:33N 43°25' E 004°55'0 0.0
2014-Apr-09 17:33N 43°25' E 004°55'0 0.0
2014-Apr-09 16:33N 43°25' E 004°55'0 0.0
2014-Apr-09 15:33N 43°25' E 004°55'0 0.0
2014-Apr-09 14:33N 43°25' E 004°55'0 0.0
2014-Apr-09 13:33N 43°25' E 004°55'0 0.0
2014-Apr-09 12:33N 43°25' E 004°55'6 6.2
2014-Apr-09 11:34N 43°19' E 004°59'1111.0
2014-Apr-09 10:33N 43°10' E 005°08'198 4.2
2014-Apr-07 11:14N 42°32' E 009°33'  

Dump ship's entire track history

sailing weather and tide predictions

St Solene — FVDG — position and weather